createdAt,value
2023-03-31T00:02:30.279Z,100100.12
2023-03-31T00:05:01.120Z,100099.55
2023-03-31T00:07:30.583Z,100094.27
2023-03-31T00:10:16.784Z,100093.55
2023-03-31T00:12:51.122Z,100092.96
2023-03-31T00:15:20.007Z,100088.08
2023-03-31T00:17:48.430Z,100086.47
2023-03-31T00:20:18.398Z,100089.72
2023-03-31T00:22:47.191Z,100086.81
2023-03-31T00:25:16.486Z,100089.98
2023-03-31T00:27:46.166Z,100092.05
2023-03-31T00:30:21.581Z,100092.00
2023-03-31T00:32:51.264Z,100081.23
2023-03-31T00:35:19.562Z,100081.70
2023-03-31T00:37:47.847Z,100075.44
2023-03-31T00:40:16.533Z,100070.52
2023-03-31T00:42:46.983Z,100072.65
2023-03-31T00:45:15.626Z,100073.84
2023-03-31T00:47:48.004Z,100071.36
2023-03-31T00:50:23.704Z,100062.48
2023-03-31T00:52:58.130Z,100059.33
2023-03-31T00:55:30.993Z,100057.30
2023-03-31T00:58:02.138Z,100054.91
2023-03-31T01:00:32.113Z,100057.10
2023-03-31T01:03:07.078Z,100057.71
2023-03-31T01:05:44.543Z,100055.46
2023-03-31T01:08:13.657Z,100055.77
2023-03-31T01:10:45.451Z,100048.76
2023-03-31T01:13:17.559Z,100044.08
2023-03-31T01:15:46.075Z,100039.73
2023-03-31T01:18:16.539Z,100037.60
2023-03-31T01:21:07.821Z,100032.41
2023-03-31T01:23:45.367Z,100033.81
2023-03-31T01:26:51.350Z,100032.03
2023-03-31T01:29:30.969Z,100030.42
2023-03-31T01:32:26.823Z,100027.27
2023-03-31T01:35:21.198Z,100026.39
2023-03-31T01:38:23.749Z,100022.16
2023-03-31T01:41:08.040Z,100020.02
2023-03-31T01:43:58.148Z,100012.23
2023-03-31T01:46:34.398Z,100002.14
2023-03-31T01:49:28.340Z,100002.85
2023-03-31T01:52:18.607Z,100005.59
2023-03-31T01:54:50.895Z,100005.84
2023-03-31T01:57:31.497Z,100010.46
2023-03-31T02:00:05.856Z,100014.30
2023-03-31T02:02:58.419Z,100008.56
2023-03-31T02:05:30.828Z,100004.73
2023-03-31T02:08:15.685Z,100002.05
2023-03-31T02:10:44.531Z,99995.95
2023-03-31T02:13:13.507Z,99990.66
2023-03-31T02:15:46.878Z,99986.20
2023-03-31T02:18:19.618Z,99977.13
2023-03-31T02:20:49.680Z,99972.68
2023-03-31T02:23:20.039Z,99965.15
2023-03-31T02:25:52.420Z,99958.70
2023-03-31T02:28:22.939Z,99950.73
2023-03-31T02:31:14.718Z,99944.66
2023-03-31T02:33:45.963Z,99940.85
2023-03-31T02:36:14.206Z,99935.29
2023-03-31T02:39:09.919Z,99937.06
2023-03-31T02:41:38.555Z,99934.15
2023-03-31T02:44:06.793Z,99932.20
2023-03-31T02:46:35.313Z,99926.88
2023-03-31T02:49:05.824Z,99922.13
2023-03-31T02:52:08.974Z,99921.55
2023-03-31T02:54:41.246Z,99923.64
2023-03-31T02:57:41.970Z,99922.22
2023-03-31T03:00:32.201Z,99917.27
2023-03-31T03:03:15.920Z,99914.98
2023-03-31T03:05:51.158Z,99919.28
2023-03-31T03:09:18.654Z,99926.28
2023-03-31T03:12:17.343Z,99918.96
2023-03-31T03:14:59.887Z,99917.06
2023-03-31T03:17:39.534Z,99912.68
2023-03-31T03:20:09.627Z,99915.03
2023-03-31T03:22:40.030Z,99912.52
2023-03-31T03:25:13.404Z,99911.27
2023-03-31T03:27:41.776Z,99908.31
2023-03-31T03:30:11.618Z,99911.94
2023-03-31T03:32:41.775Z,99912.75
2023-03-31T03:35:10.959Z,99909.92
2023-03-31T03:37:39.252Z,99910.48
2023-03-31T03:40:09.251Z,99910.25
2023-03-31T03:42:38.880Z,99905.66
2023-03-31T03:45:12.435Z,99896.59
2023-03-31T03:47:41.456Z,99891.84
2023-03-31T03:50:10.577Z,99896.83
2023-03-31T03:52:39.593Z,99895.44
2023-03-31T03:55:09.276Z,99894.62
2023-03-31T03:57:37.512Z,99898.88
2023-03-31T04:00:13.961Z,99898.33
2023-03-31T04:02:45.509Z,99896.50
2023-03-31T04:05:13.963Z,99893.56
2023-03-31T04:07:42.276Z,99894.73
2023-03-31T04:10:15.698Z,99890.44
2023-03-31T04:12:45.796Z,99892.73
2023-03-31T04:15:13.970Z,99886.93
2023-03-31T04:17:51.199Z,99886.14
2023-03-31T04:20:19.983Z,99876.98
2023-03-31T04:22:50.951Z,99872.60
2023-03-31T04:25:20.123Z,99872.06
2023-03-31T04:27:54.956Z,99873.11
2023-03-31T04:30:31.106Z,99869.72
2023-03-31T04:33:02.916Z,99868.39
2023-03-31T04:35:53.346Z,99866.76
2023-03-31T04:38:27.534Z,99864.63
2023-03-31T04:40:56.525Z,99865.98
2023-03-31T04:43:46.252Z,99861.35
2023-03-31T04:46:18.360Z,99860.09
2023-03-31T04:48:56.471Z,99854.67
2023-03-31T04:51:41.318Z,99847.41
2023-03-31T04:54:13.307Z,99848.42
2023-03-31T04:56:46.554Z,99850.03
2023-03-31T04:59:21.302Z,99849.69
2023-03-31T05:01:54.521Z,99845.39
2023-03-31T05:04:29.725Z,99843.34
2023-03-31T05:07:25.901Z,99843.06
2023-03-31T05:10:16.113Z,99838.06
2023-03-31T05:12:59.667Z,99833.98
2023-03-31T05:15:37.030Z,99829.23
2023-03-31T05:18:26.170Z,99825.80
2023-03-31T05:21:21.702Z,99824.84
2023-03-31T05:23:56.254Z,99816.33
2023-03-31T05:26:42.629Z,99810.10
2023-03-31T05:29:25.262Z,99804.81
2023-03-31T05:32:03.520Z,99805.84
2023-03-31T05:34:39.136Z,99806.84
2023-03-31T05:37:37.099Z,99803.33
2023-03-31T05:40:15.677Z,99799.13
2023-03-31T05:42:51.715Z,99795.96
2023-03-31T05:45:33.253Z,99795.72
2023-03-31T05:48:13.806Z,99791.73
2023-03-31T05:51:05.380Z,99790.85
2023-03-31T05:53:51.233Z,99786.87
2023-03-31T05:56:42.356Z,99778.30
2023-03-31T05:59:34.108Z,99763.97
2023-03-31T06:02:19.118Z,99765.17
2023-03-31T06:04:54.409Z,99767.29
2023-03-31T06:07:38.472Z,99763.30
2023-03-31T06:10:11.010Z,99756.02
2023-03-31T06:12:53.402Z,99753.73
2023-03-31T06:15:36.763Z,99750.31
2023-03-31T06:18:33.431Z,99748.44
2023-03-31T06:21:32.326Z,99746.13
2023-03-31T06:24:12.222Z,99742.86
2023-03-31T06:26:47.353Z,99736.84
2023-03-31T06:29:18.780Z,99735.67
2023-03-31T06:31:51.236Z,99739.84
2023-03-31T06:34:24.401Z,99738.84
2023-03-31T06:36:56.977Z,99734.73
2023-03-31T06:39:31.895Z,99732.04
2023-03-31T06:42:12.173Z,99732.75
2023-03-31T06:45:03.432Z,99730.35
2023-03-31T06:47:48.833Z,99725.83
2023-03-31T06:50:26.539Z,99734.17
2023-03-31T06:52:56.392Z,99731.91
2023-03-31T06:55:34.457Z,99727.05
2023-03-31T06:58:24.406Z,99721.46
2023-03-31T07:01:04.284Z,99718.84
2023-03-31T07:03:49.610Z,99712.46
2023-03-31T07:06:34.455Z,99708.27
2023-03-31T07:09:09.057Z,99708.15
2023-03-31T07:11:47.778Z,99703.61
2023-03-31T07:14:18.490Z,99699.97
2023-03-31T07:16:55.495Z,99700.27
2023-03-31T07:19:59.376Z,99698.00
2023-03-31T07:22:46.660Z,99695.56
2023-03-31T07:25:25.790Z,99695.73
2023-03-31T07:28:04.686Z,99694.11
2023-03-31T07:31:03.245Z,99686.01
2023-03-31T07:33:50.360Z,99683.82
2023-03-31T07:36:36.309Z,99681.70
2023-03-31T07:39:25.800Z,99678.30
2023-03-31T07:42:14.039Z,99677.48
2023-03-31T07:45:08.541Z,99676.27
2023-03-31T07:48:03.575Z,99668.52
2023-03-31T07:50:44.390Z,99664.52
2023-03-31T07:53:56.446Z,99658.89
2023-03-31T07:56:33.429Z,99654.42
2023-03-31T07:59:15.804Z,99652.48
2023-03-31T08:01:46.755Z,99652.52
2023-03-31T08:04:15.722Z,99654.73
2023-03-31T08:06:44.140Z,99653.34
2023-03-31T08:09:12.513Z,99648.48
2023-03-31T08:11:42.447Z,99648.89
2023-03-31T08:14:11.166Z,99646.97
2023-03-31T08:16:40.074Z,99642.41
2023-03-31T08:19:08.809Z,99636.12
2023-03-31T08:21:37.705Z,99635.02
2023-03-31T08:24:10.252Z,99632.70
2023-03-31T08:26:38.763Z,99630.54
2023-03-31T08:29:07.264Z,99630.45
2023-03-31T08:31:35.739Z,99629.48
2023-03-31T08:34:04.839Z,99621.42
2023-03-31T08:36:33.487Z,99621.45
2023-03-31T08:39:02.215Z,99614.20
2023-03-31T08:41:45.613Z,99608.45
2023-03-31T08:44:30.189Z,99607.52
2023-03-31T08:47:01.133Z,99603.08
2023-03-31T08:49:31.579Z,99602.29
2023-03-31T08:52:03.105Z,99600.19
2023-03-31T08:54:37.628Z,99597.39
2023-03-31T08:57:10.242Z,99596.46
2023-03-31T08:59:41.267Z,99597.39
2023-03-31T09:02:25.384Z,99597.05
2023-03-31T09:05:07.441Z,99592.02
2023-03-31T09:07:41.379Z,99587.81
2023-03-31T09:10:12.727Z,99589.92
2023-03-31T09:12:41.888Z,99585.79
2023-03-31T09:15:29.799Z,99583.65
2023-03-31T09:18:00.571Z,99588.02
2023-03-31T09:20:38.685Z,99592.52
2023-03-31T09:23:22.885Z,99585.11
2023-03-31T09:25:51.746Z,99568.77
2023-03-31T09:28:31.693Z,99571.33
2023-03-31T09:31:00.247Z,99567.16
2023-03-31T09:33:33.341Z,99563.89
2023-03-31T09:36:01.853Z,99556.17
2023-03-31T09:38:34.898Z,99552.69
2023-03-31T09:41:05.652Z,99551.55
2023-03-31T09:43:38.593Z,99552.33
2023-03-31T09:46:36.159Z,99551.34
2023-03-31T09:49:11.265Z,99550.98
2023-03-31T09:51:42.178Z,99541.29
2023-03-31T09:54:21.404Z,99538.20
2023-03-31T09:56:53.796Z,99534.80
2023-03-31T09:59:35.222Z,99524.12
2023-03-31T10:02:21.416Z,99516.51
2023-03-31T10:04:49.853Z,99514.70
2023-03-31T10:07:22.171Z,99513.00
2023-03-31T10:09:50.743Z,99513.48
2023-03-31T10:12:24.697Z,99508.23
2023-03-31T10:14:54.619Z,99510.38
2023-03-31T10:17:24.655Z,99506.39
2023-03-31T10:19:54.389Z,99508.33
2023-03-31T10:22:32.559Z,99508.48
2023-03-31T10:25:21.854Z,99506.45
2023-03-31T10:27:52.689Z,99508.27
2023-03-31T10:30:25.940Z,99500.67
2023-03-31T10:32:58.716Z,99501.11
2023-03-31T10:35:35.649Z,99504.28
2023-03-31T10:38:06.765Z,99498.67
2023-03-31T10:40:36.524Z,99498.27
2023-03-31T10:43:18.879Z,99493.39
2023-03-31T10:45:50.133Z,99490.26
2023-03-31T10:48:33.563Z,99487.59
2023-03-31T10:51:27.219Z,99484.37
2023-03-31T10:54:04.134Z,99485.17
2023-03-31T10:56:38.613Z,99489.60
2023-03-31T10:59:33.400Z,99479.60
2023-03-31T11:02:20.446Z,99467.13
2023-03-31T11:04:52.513Z,99466.77
2023-03-31T11:07:30.051Z,99461.95
2023-03-31T11:10:21.278Z,99464.25
2023-03-31T11:12:56.708Z,99458.20
2023-03-31T11:15:42.768Z,99453.67
2023-03-31T11:18:34.231Z,99446.23
2023-03-31T11:21:28.112Z,99439.44
2023-03-31T11:24:04.817Z,99435.82
2023-03-31T11:26:56.466Z,99437.69
2023-03-31T11:29:45.686Z,99434.95
2023-03-31T11:32:24.802Z,99436.44
2023-03-31T11:35:24.051Z,99437.15
2023-03-31T11:38:22.596Z,99431.97
2023-03-31T11:40:55.055Z,99434.17
2023-03-31T11:43:37.333Z,99434.52
2023-03-31T11:46:18.107Z,99430.04
2023-03-31T11:48:51.376Z,99423.73
2023-03-31T11:51:29.358Z,99426.11
2023-03-31T11:53:59.214Z,99421.80
2023-03-31T11:56:39.834Z,99416.49
2023-03-31T11:59:13.870Z,99417.59
2023-03-31T12:01:52.789Z,99411.86
2023-03-31T12:04:33.962Z,99401.70
2023-03-31T12:07:34.149Z,99395.27
2023-03-31T12:10:20.933Z,99390.08
2023-03-31T12:13:03.370Z,99383.74
2023-03-31T12:15:40.357Z,99386.05
2023-03-31T12:18:16.680Z,99380.84
2023-03-31T12:20:53.326Z,99377.50
2023-03-31T12:23:27.669Z,99375.80
2023-03-31T12:26:03.392Z,99375.24
2023-03-31T12:28:37.641Z,99372.26
2023-03-31T12:31:06.605Z,99370.46
2023-03-31T12:33:46.607Z,99368.66
2023-03-31T12:36:43.889Z,99364.30
2023-03-31T12:39:31.086Z,99362.11
2023-03-31T12:42:22.464Z,99357.83
2023-03-31T12:45:19.617Z,99350.28
2023-03-31T12:47:57.209Z,99348.70
2023-03-31T12:50:34.829Z,99344.88
2023-03-31T12:53:21.319Z,99344.59
2023-03-31T12:55:52.192Z,99343.12
2023-03-31T12:58:28.288Z,99347.16
2023-03-31T13:01:15.397Z,99342.48
2023-03-31T13:03:51.446Z,99339.86
2023-03-31T13:06:30.906Z,99338.16
2023-03-31T13:08:59.356Z,99326.95
2023-03-31T13:11:31.489Z,99322.95
2023-03-31T13:14:03.624Z,99319.50
2023-03-31T13:16:39.358Z,99315.08
2023-03-31T13:19:07.819Z,99313.94
2023-03-31T13:21:56.444Z,99309.14
2023-03-31T13:24:29.139Z,99307.42
2023-03-31T13:26:59.542Z,99305.71
2023-03-31T13:29:43.780Z,99303.85
2023-03-31T13:32:23.957Z,99299.15
2023-03-31T13:35:07.511Z,99295.40
2023-03-31T13:37:55.150Z,99294.48
2023-03-31T13:41:08.503Z,99291.39
2023-03-31T13:43:51.514Z,99291.23
2023-03-31T13:46:59.586Z,99295.73
2023-03-31T13:49:54.484Z,99296.02
2023-03-31T13:52:44.949Z,99296.31
2023-03-31T13:55:42.520Z,99300.37
2023-03-31T13:58:33.629Z,99305.57
2023-03-31T14:01:37.990Z,99304.26
2023-03-31T14:04:13.499Z,99297.27
2023-03-31T14:06:48.868Z,99296.59
2023-03-31T14:09:42.134Z,99301.05
2023-03-31T14:12:20.846Z,99301.51
2023-03-31T14:14:53.406Z,99309.81
2023-03-31T14:17:33.006Z,99308.35
2023-03-31T14:20:10.911Z,99303.58
2023-03-31T14:22:58.541Z,99305.51
2023-03-31T14:25:48.881Z,99300.69
2023-03-31T14:28:37.582Z,99298.30
2023-03-31T14:31:26.837Z,99301.95
2023-03-31T14:34:24.883Z,99302.34
2023-03-31T14:37:01.890Z,99304.71
2023-03-31T14:39:37.916Z,99301.45
2023-03-31T14:42:11.457Z,99300.94
2023-03-31T14:44:40.192Z,99297.23
2023-03-31T14:47:37.615Z,99294.83
2023-03-31T14:50:41.879Z,99295.30
2023-03-31T14:53:42.255Z,99294.58
2023-03-31T14:56:52.285Z,99292.42
2023-03-31T14:59:45.369Z,99294.00
2023-03-31T15:02:36.952Z,99294.48
2023-03-31T15:05:08.019Z,99298.83
2023-03-31T15:07:37.324Z,99301.67
2023-03-31T15:10:07.223Z,99304.05
2023-03-31T15:12:38.502Z,99305.20
2023-03-31T15:15:07.735Z,99301.43
2023-03-31T15:17:42.845Z,99303.69
2023-03-31T15:20:28.099Z,99305.72
2023-03-31T15:22:56.973Z,99300.82
2023-03-31T15:25:27.673Z,99302.81
2023-03-31T15:28:02.127Z,99303.71
2023-03-31T15:30:37.472Z,99305.80
2023-03-31T15:33:19.012Z,99305.83
2023-03-31T15:35:48.070Z,99310.17
2023-03-31T15:38:18.822Z,99310.33
2023-03-31T15:40:51.915Z,99315.50
2023-03-31T15:43:31.156Z,99318.29
2023-03-31T15:46:00.274Z,99316.15
2023-03-31T15:48:37.364Z,99315.54
2023-03-31T15:51:20.564Z,99317.86
2023-03-31T15:53:53.839Z,99315.60
2023-03-31T15:56:36.427Z,99313.33
2023-03-31T15:59:21.090Z,99308.86
2023-03-31T16:01:49.570Z,99314.98
2023-03-31T16:04:17.876Z,99306.08
2023-03-31T16:06:55.412Z,99306.45
2023-03-31T16:09:24.943Z,99304.77
2023-03-31T16:12:04.869Z,99304.58
2023-03-31T16:14:43.847Z,99302.80
2023-03-31T16:17:14.663Z,99307.95
2023-03-31T16:19:52.206Z,99305.60
2023-03-31T16:22:22.792Z,99307.71
2023-03-31T16:24:51.300Z,99304.80
2023-03-31T16:27:20.991Z,99303.20
2023-03-31T16:29:49.521Z,99306.67
2023-03-31T16:32:19.201Z,99304.11
2023-03-31T16:35:01.607Z,99303.65
2023-03-31T16:37:30.631Z,99301.29
2023-03-31T16:40:00.101Z,99297.77
2023-03-31T16:42:28.390Z,99296.91
2023-03-31T16:47:47.579Z,99297.91
2023-03-31T16:50:15.948Z,99299.64
2023-03-31T16:52:45.702Z,99301.20
2023-03-31T16:55:14.316Z,99301.44
2023-03-31T16:57:42.780Z,99301.81
2023-03-31T17:00:12.035Z,99300.41
2023-03-31T17:02:42.427Z,99297.69
2023-03-31T17:05:13.403Z,99301.07
2023-03-31T17:07:42.185Z,99306.43
2023-03-31T17:10:13.003Z,99304.56
2023-03-31T17:12:42.177Z,99305.73
2023-03-31T17:15:11.224Z,99306.95
2023-03-31T17:17:46.582Z,99303.73
2023-03-31T17:20:15.950Z,99305.20
2023-03-31T17:22:45.329Z,99308.50
2023-03-31T17:25:14.313Z,99306.65
2023-03-31T17:27:42.549Z,99311.83
2023-03-31T17:30:12.881Z,99312.04
2023-03-31T17:32:41.530Z,99314.77
2023-03-31T17:35:10.598Z,99313.72
2023-03-31T17:37:40.150Z,99313.88
2023-03-31T17:40:09.934Z,99312.06
2023-03-31T17:42:39.550Z,99309.66
2023-03-31T17:45:09.065Z,99310.79
2023-03-31T17:47:38.275Z,99308.03
2023-03-31T17:50:09.043Z,99310.70
2023-03-31T17:52:37.668Z,99309.85
2023-03-31T17:55:07.513Z,99308.40
2023-03-31T17:57:37.358Z,99304.39
2023-03-31T18:00:10.098Z,99304.26
2023-03-31T18:02:40.078Z,99301.61
2023-03-31T18:05:09.377Z,99303.29
2023-03-31T18:07:39.063Z,99304.45
2023-03-31T18:10:10.232Z,99304.42
2023-03-31T18:12:46.937Z,99302.46
2023-03-31T18:15:16.709Z,99298.48
2023-03-31T18:17:46.034Z,99297.02
2023-03-31T18:20:21.728Z,99295.02
2023-03-31T18:22:50.305Z,99297.71
2023-03-31T18:25:19.970Z,99296.59
2023-03-31T18:27:50.758Z,99299.17
2023-03-31T18:30:19.069Z,99294.91
2023-03-31T18:32:49.684Z,99293.38
2023-03-31T18:35:19.219Z,99289.74
2023-03-31T18:37:48.045Z,99283.08
2023-03-31T18:40:18.133Z,99285.52
2023-03-31T18:42:50.973Z,99286.98
2023-03-31T18:45:23.671Z,99283.61
2023-03-31T18:47:53.680Z,99284.44
2023-03-31T18:50:23.544Z,99287.36
2023-03-31T18:52:53.549Z,99286.73
2023-03-31T18:55:25.440Z,99287.30
2023-03-31T18:57:54.607Z,99280.48
2023-03-31T19:00:24.192Z,99276.97
2023-03-31T19:02:54.254Z,99272.64
2023-03-31T19:05:28.563Z,99278.79
2023-03-31T19:08:00.574Z,99273.61
2023-03-31T19:10:31.711Z,99277.05
2023-03-31T19:13:06.485Z,99270.85
2023-03-31T19:15:38.775Z,99271.89
2023-03-31T19:18:14.297Z,99271.71
2023-03-31T19:20:47.128Z,99270.95
2023-03-31T19:23:22.296Z,99268.40
2023-03-31T19:25:54.957Z,99268.45
2023-03-31T19:28:24.480Z,99268.84
2023-03-31T19:31:10.152Z,99272.48
2023-03-31T19:33:41.120Z,99271.83
2023-03-31T19:36:09.755Z,99267.30
2023-03-31T19:38:38.224Z,99270.46
2023-03-31T19:41:06.963Z,99271.58
2023-03-31T19:43:35.279Z,99265.09
2023-03-31T19:46:03.519Z,99266.08
2023-03-31T19:48:34.171Z,99266.74
2023-03-31T19:51:07.757Z,99261.45
2023-03-31T19:53:39.903Z,99263.67
2023-03-31T19:56:16.885Z,99263.05
2023-03-31T19:58:45.998Z,99265.70
2023-03-31T20:01:16.421Z,99264.98
2023-03-31T20:03:46.160Z,99264.41
2023-03-31T20:06:14.945Z,99267.12
2023-03-31T20:08:44.021Z,99265.84
2023-03-31T20:11:19.740Z,99267.25
2023-03-31T20:13:48.573Z,99264.38
2023-03-31T20:16:19.662Z,99264.97
2023-03-31T20:18:59.296Z,99264.13
2023-03-31T20:21:29.153Z,99260.10
2023-03-31T20:23:59.092Z,99256.04
2023-03-31T20:26:32.783Z,99255.62
2023-03-31T20:29:04.533Z,99255.65
2023-03-31T20:31:38.033Z,99256.80
2023-03-31T20:34:12.363Z,99257.38
2023-03-31T20:36:42.048Z,99257.16
2023-03-31T20:39:11.758Z,99258.91
2023-03-31T20:41:40.355Z,99260.31
2023-03-31T20:44:13.501Z,99262.30
2023-03-31T20:46:43.725Z,99259.95
2023-03-31T20:49:13.051Z,99261.31
2023-03-31T20:51:42.928Z,99259.72
2023-03-31T20:54:12.218Z,99262.80
2023-03-31T20:56:52.011Z,99265.14
2023-03-31T20:59:24.231Z,99262.55
2023-03-31T21:01:53.053Z,99262.77
2023-03-31T21:04:23.888Z,99258.59
2023-03-31T21:06:52.687Z,99256.68
2023-03-31T21:09:24.897Z,99256.17
2023-03-31T21:11:56.873Z,99263.55
2023-03-31T21:14:26.363Z,99268.40
2023-03-31T21:16:55.826Z,99273.02
2023-03-31T21:19:25.401Z,99267.55
2023-03-31T21:21:56.830Z,99266.12
2023-03-31T21:24:27.879Z,99265.02
2023-03-31T21:26:58.291Z,99264.43
2023-03-31T21:29:27.032Z,99262.71
2023-03-31T21:31:55.734Z,99266.42
2023-03-31T21:34:25.306Z,99268.29
2023-03-31T21:36:54.634Z,99269.60
2023-03-31T21:39:22.844Z,99266.56
2023-03-31T21:41:51.671Z,99264.05
2023-03-31T21:44:21.058Z,99259.33
2023-03-31T21:46:50.899Z,99250.84
2023-03-31T21:49:19.440Z,99249.48
2023-03-31T21:51:47.717Z,99248.14
2023-03-31T21:54:16.778Z,99251.31
2023-03-31T21:56:47.678Z,99251.16
2023-03-31T21:59:15.977Z,99252.02
2023-03-31T22:01:45.783Z,99252.92
2023-03-31T22:04:14.754Z,99252.95
2023-03-31T22:06:43.080Z,99249.59
2023-03-31T22:09:11.769Z,99247.38
2023-03-31T22:11:40.666Z,99248.54
2023-03-31T22:14:09.721Z,99249.33
2023-03-31T22:16:38.574Z,99246.76
2023-03-31T22:19:08.772Z,99248.51
2023-03-31T22:21:44.020Z,99249.99
2023-03-31T22:24:13.822Z,99247.55
2023-03-31T22:26:43.411Z,99248.09
2023-03-31T22:29:17.027Z,99249.26
2023-03-31T22:31:45.851Z,99247.54
2023-03-31T22:34:16.324Z,99249.77
2023-03-31T22:36:47.471Z,99249.76
2023-03-31T22:39:16.581Z,99250.77
2023-03-31T22:41:44.956Z,99253.30
2023-03-31T22:44:13.163Z,99250.12
2023-03-31T22:46:42.020Z,99252.34
2023-03-31T22:49:10.344Z,99249.73
2023-03-31T22:51:45.305Z,99255.06
2023-03-31T22:54:14.757Z,99257.99
2023-03-31T22:56:44.222Z,99258.05
2023-03-31T22:59:12.632Z,99260.45
2023-03-31T23:01:42.088Z,99260.08
2023-03-31T23:04:10.495Z,99257.66
2023-03-31T23:06:39.196Z,99257.17
2023-03-31T23:09:08.031Z,99258.91
2023-03-31T23:11:39.535Z,99255.43
2023-03-31T23:14:14.415Z,99251.00
2023-03-31T23:16:42.959Z,99251.58
2023-03-31T23:19:12.653Z,99253.47
2023-03-31T23:21:44.365Z,99259.09
2023-03-31T23:24:12.645Z,99258.94
2023-03-31T23:26:44.192Z,99257.85
2023-03-31T23:29:13.046Z,99259.27
2023-03-31T23:31:41.388Z,99257.46
2023-03-31T23:34:11.629Z,99264.53
2023-03-31T23:36:40.127Z,99263.67
2023-03-31T23:39:08.338Z,99260.16
2023-03-31T23:41:38.209Z,99260.19
2023-03-31T23:44:06.728Z,99262.13
2023-03-31T23:46:35.020Z,99266.11
2023-03-31T23:49:05.233Z,99261.08
2023-03-31T23:51:35.118Z,99260.45
2023-03-31T23:54:03.398Z,99260.20
2023-03-31T23:56:32.123Z,99252.96
2023-03-31T23:59:01.708Z,99248.95
